Time;durP1;ratioP1;P1;durP2;ratioP2;P2;SDS_P1;SDS_P2;PMS_P1;PMS_P2;Temp;Humidity;BMP_temperature;BMP_pressure;BME280_temperature;BME280_humidity;BME280_pressure;Samples;Min_cycle;Max_cycle;Signal;HPM_P1;HPM_P2
2021/10/09 00:01:33;;;;;;;28.50;25.63;;;9.60;99.90;;;;;;4934731;29;20450;-74
2021/10/09 00:04:00;;;;;;;29.73;26.80;;;9.60;99.90;;;;;;4936383;29;20047;-73
2021/10/09 00:06:26;;;;;;;30.02;27.23;;;9.50;99.90;;;;;;4936240;29;20043;-73
2021/10/09 00:08:55;;;;;;;29.17;26.30;;;9.60;99.90;;;;;;4941267;29;20078;-74
2021/10/09 00:11:36;;;;;;;28.30;25.88;;;9.60;99.90;;;;;;4934885;29;20032;-74
2021/10/09 00:14:07;;;;;;;40.55;28.17;;;9.60;99.90;;;;;;4920088;29;20051;-73
2021/10/09 00:16:37;;;;;;;29.73;25.75;;;9.60;99.90;;;;;;4952890;29;20035;-75
2021/10/09 00:19:04;;;;;;;29.10;26.08;;;9.50;99.90;;;;;;4939415;29;20092;-73
2021/10/09 00:21:31;;;;;;;32.83;29.45;;;9.50;99.90;;;;;;4952358;29;20031;-74
2021/10/09 00:23:58;;;;;;;29.30;26.05;;;9.50;99.90;;;;;;4938316;29;20040;-73
2021/10/09 00:26:24;;;;;;;27.42;24.60;;;9.40;99.90;;;;;;4917886;29;20035;-73
2021/10/09 00:28:51;;;;;;;27.73;25.42;;;9.30;99.90;;;;;;4932123;29;20043;-72
2021/10/09 00:31:17;;;;;;;29.15;26.35;;;9.30;99.90;;;;;;4942644;29;20039;-72
2021/10/09 00:33:43;;;;;;;30.73;27.85;;;9.20;99.90;;;;;;4917776;29;20048;-72
2021/10/09 00:36:10;;;;;;;31.50;28.60;;;9.20;99.90;;;;;;4935367;29;20388;-72
2021/10/09 00:38:36;;;;;;;30.98;28.08;;;9.20;99.90;;;;;;4901675;29;20051;-72
2021/10/09 00:41:03;;;;;;;29.42;26.63;;;9.10;99.90;;;;;;4935413;29;20039;-73
2021/10/09 00:43:29;;;;;;;30.38;27.55;;;9.10;99.90;;;;;;4936872;29;20054;-72
2021/10/09 00:45:56;;;;;;;31.35;28.40;;;9.00;99.90;;;;;;4935515;29;20043;-73
2021/10/09 00:48:24;;;;;;;31.88;27.67;;;9.00;99.90;;;;;;4940231;29;20043;-75
2021/10/09 00:50:51;;;;;;;31.25;28.55;;;8.90;99.90;;;;;;4934522;29;20032;-72
2021/10/09 00:53:21;;;;;;;33.13;29.70;;;8.80;99.90;;;;;;4932714;29;20487;-72
2021/10/09 00:55:51;;;;;;;31.45;28.58;;;8.80;99.90;;;;;;4935047;29;20028;-73
2021/10/09 00:58:20;;;;;;;29.38;26.77;;;8.80;99.90;;;;;;4934907;29;20031;-73
2021/10/09 01:00:47;;;;;;;30.88;28.40;;;8.80;99.90;;;;;;4931989;29;20043;-73
2021/10/09 01:03:13;;;;;;;31.17;28.55;;;8.80;99.90;;;;;;4933577;29;20051;-74
2021/10/09 01:05:40;;;;;;;32.45;29.10;;;8.80;99.90;;;;;;4943607;29;20058;-73
2021/10/09 01:08:06;;;;;;;32.35;29.33;;;8.80;99.90;;;;;;4934416;29;20055;-73
2021/10/09 01:10:33;;;;;;;30.30;27.58;;;8.80;99.90;;;;;;4935564;29;20404;-74
2021/10/09 01:13:03;;;;;;;32.58;28.35;;;8.80;99.90;;;;;;4935511;29;20054;-73
2021/10/09 01:15:34;;;;;;;32.03;29.00;;;8.90;99.90;;;;;;4938390;29;20080;-74
2021/10/09 01:18:14;;;;;;;32.97;27.95;;;9.00;99.90;;;;;;4932568;29;20036;-74
2021/10/09 01:20:54;;;;;;;30.60;27.85;;;9.00;99.90;;;;;;4928713;29;20047;-74
2021/10/09 01:23:26;;;;;;;32.03;28.88;;;9.00;99.90;;;;;;4934888;29;20508;-74
2021/10/09 01:25:53;;;;;;;29.95;27.27;;;9.10;99.90;;;;;;4933875;29;20043;-73
2021/10/09 01:28:20;;;;;;;31.25;28.30;;;9.10;99.90;;;;;;4935497;29;20039;-74
2021/10/09 01:30:48;;;;;;;30.35;27.45;;;9.00;99.90;;;;;;4919699;29;20051;-73
2021/10/09 01:33:14;;;;;;;37.53;28.52;;;9.00;99.90;;;;;;4935824;29;20062;-74
2021/10/09 01:35:50;;;;;;;31.13;28.08;;;9.00;99.90;;;;;;4915771;29;20055;-74
2021/10/09 01:38:20;;;;;;;29.77;27.38;;;9.00;99.90;;;;;;4917027;29;20063;-73
2021/10/09 01:40:47;;;;;;;29.80;27.08;;;9.00;99.90;;;;;;4916966;29;20044;-73
2021/10/09 01:43:15;;;;;;;29.77;26.00;;;8.90;99.90;;;;;;4917137;29;20048;-73
2021/10/09 01:45:43;;;;;;;30.58;27.48;;;8.90;99.90;;;;;;4930473;29;20113;-74
2021/10/09 01:48:09;;;;;;;33.17;28.55;;;8.90;99.90;;;;;;4943831;29;20050;-73
2021/10/09 01:50:36;;;;;;;29.48;26.88;;;8.90;99.90;;;;;;4916614;29;20039;-73
2021/10/09 01:53:07;;;;;;;32.58;27.27;;;8.90;99.90;;;;;;4919396;29;20062;-73
2021/10/09 01:55:38;;;;;;;32.90;29.60;;;8.80;99.90;;;;;;4934754;29;20051;-73
2021/10/09 01:58:06;;;;;;;33.22;28.40;;;8.80;99.90;;;;;;4922022;29;20481;-73
2021/10/09 02:00:34;;;;;;;29.52;26.80;;;8.80;99.90;;;;;;4901444;29;20059;-73
2021/10/09 02:03:05;;;;;;;36.72;29.17;;;8.80;99.90;;;;;;4902886;29;20106;-73
2021/10/09 02:05:33;;;;;;;30.63;27.63;;;8.80;99.90;;;;;;4954953;29;20051;-73
2021/10/09 02:08:01;;;;;;;33.15;30.02;;;8.70;99.90;;;;;;4921790;29;20059;-73
2021/10/09 02:10:28;;;;;;;32.60;29.38;;;8.60;99.90;;;;;;4927668;29;20046;-74
2021/10/09 02:13:03;;;;;;;33.65;30.52;;;8.50;99.90;;;;;;4937283;29;20039;-72
2021/10/09 02:15:36;;;;;;;30.55;27.95;;;8.50;99.90;;;;;;4920680;29;20495;-74
2021/10/09 02:26:18;;;;;;;32.53;29.15;;;8.50;99.90;;;;;;4937593;29;20043;-73
2021/10/09 02:28:44;;;;;;;33.15;29.55;;;8.60;99.90;;;;;;4919345;29;20432;-73
2021/10/09 02:31:10;;;;;;;35.17;27.63;;;8.50;99.90;;;;;;4953553;29;20043;-73
2021/10/09 02:33:37;;;;;;;30.08;27.33;;;8.60;99.90;;;;;;4949765;29;20044;-72
2021/10/09 02:36:03;;;;;;;30.90;28.35;;;8.60;99.90;;;;;;4959729;29;20042;-73
2021/10/09 02:38:29;;;;;;;31.27;28.25;;;8.60;99.90;;;;;;4921248;29;20028;-73
2021/10/09 02:40:56;;;;;;;30.23;27.48;;;8.50;99.90;;;;;;4929096;29;20047;-73
2021/10/09 02:43:23;;;;;;;30.88;27.73;;;8.50;99.90;;;;;;4937807;29;20039;-73
2021/10/09 02:45:51;;;;;;;28.85;26.27;;;8.50;99.90;;;;;;4937528;29;20405;-73
2021/10/09 02:48:18;;;;;;;31.75;28.63;;;8.40;99.90;;;;;;4933891;29;20043;-73
2021/10/09 02:50:47;;;;;;;29.38;26.75;;;8.40;99.90;;;;;;4937515;29;20052;-73
2021/10/09 02:53:17;;;;;;;32.63;28.85;;;8.30;99.90;;;;;;4934294;29;20044;-73
2021/10/09 02:55:43;;;;;;;31.95;28.80;;;8.20;99.90;;;;;;4924785;29;20051;-73
2021/10/09 02:58:10;;;;;;;28.70;26.17;;;8.00;99.90;;;;;;4937736;29;20388;-73
2021/10/09 03:00:36;;;;;;;31.00;28.17;;;7.90;99.90;;;;;;4936655;29;20043;-73
2021/10/09 03:03:03;;;;;;;31.50;29.00;;;7.70;99.90;;;;;;4935515;29;20039;-73
2021/10/09 03:05:30;;;;;;;31.02;28.63;;;7.60;99.90;;;;;;4924006;29;20043;-73
2021/10/09 03:07:56;;;;;;;34.60;31.40;;;7.40;99.90;;;;;;4949352;29;20031;-73
2021/10/09 03:10:23;;;;;;;36.60;33.17;;;7.30;99.90;;;;;;4919281;29;20040;-73
2021/10/09 03:12:50;;;;;;;35.95;33.00;;;7.10;99.90;;;;;;4933138;29;20040;-73
2021/10/09 03:15:18;;;;;;;37.08;33.88;;;7.00;99.90;;;;;;4919051;29;20048;-73
2021/10/09 03:17:45;;;;;;;39.75;35.72;;;6.80;99.90;;;;;;4934230;29;20042;-73
2021/10/09 03:20:12;;;;;;;40.92;37.42;;;6.70;99.90;;;;;;4936537;29;20355;-72
2021/10/09 03:22:39;;;;;;;38.60;35.42;;;6.60;99.90;;;;;;4919037;29;20043;-73
2021/10/09 03:25:07;;;;;;;41.45;37.88;;;6.50;99.90;;;;;;4935743;29;20050;-72
2021/10/09 03:27:33;;;;;;;43.45;39.63;;;6.50;99.90;;;;;;4935747;29;20032;-73
2021/10/09 03:30:04;;;;;;;43.13;39.75;;;6.40;99.90;;;;;;4933724;29;20042;-73
2021/10/09 03:32:34;;;;;;;44.60;40.40;;;6.30;99.90;;;;;;4923177;29;20504;-73
2021/10/09 03:35:01;;;;;;;51.05;42.92;;;6.20;99.90;;;;;;4927615;29;20060;-72
2021/10/09 03:37:27;;;;;;;50.92;46.17;;;6.20;99.90;;;;;;4925116;29;20054;-72
2021/10/09 03:39:56;;;;;;;50.30;45.53;;;6.10;99.90;;;;;;4949649;29;20031;-72
2021/10/09 03:42:28;;;;;;;53.22;48.95;;;6.10;99.90;;;;;;4941528;29;20027;-73
2021/10/09 03:44:59;;;;;;;54.38;49.45;;;6.10;99.90;;;;;;4949658;29;20046;-72
2021/10/09 03:47:42;;;;;;;53.10;48.33;;;6.10;99.90;;;;;;4929221;29;20466;-73
2021/10/09 03:52:44;;;;;;;56.15;51.25;;;6.10;99.90;;;;;;4953377;29;20035;-72
2021/10/09 03:55:16;;;;;;;58.38;53.08;;;6.20;99.90;;;;;;4936475;29;20055;-73
2021/10/09 03:57:47;;;;;;;54.97;50.03;;;6.10;99.90;;;;;;4935133;29;20058;-72
2021/10/09 04:00:18;;;;;;;56.53;51.60;;;6.10;99.90;;;;;;4916998;29;20063;-72
2021/10/09 04:02:50;;;;;;;55.58;50.65;;;6.10;99.90;;;;;;4932387;29;20051;-72
2021/10/09 04:05:17;;;;;;;58.08;53.17;;;6.10;99.90;;;;;;4932743;29;20059;-73
2021/10/09 04:07:45;;;;;;;59.35;54.20;;;6.00;99.90;;;;;;4924234;29;20188;-73
2021/10/09 04:10:16;;;;;;;60.10;55.10;;;5.90;99.90;;;;;;4935895;29;20039;-73
2021/10/09 04:12:43;;;;;;;63.80;58.22;;;5.90;99.90;;;;;;4934883;29;20039;-73
2021/10/09 04:15:09;;;;;;;66.80;61.13;;;6.00;99.90;;;;;;4923381;29;20054;-72
2021/10/09 04:17:37;;;;;;;65.57;59.38;;;6.00;99.90;;;;;;4933879;29;20047;-73
2021/10/09 04:20:06;;;;;;;73.30;66.88;;;6.00;99.90;;;;;;4935965;29;20050;-73
2021/10/09 04:22:32;;;;;;;71.22;65.20;;;6.00;99.90;;;;;;4937573;29;20036;-73
2021/10/09 04:24:58;;;;;;;68.82;62.53;;;6.00;99.90;;;;;;4940002;28;20504;-72
2021/10/09 04:27:25;;;;;;;71.85;64.78;;;6.00;99.90;;;;;;4949236;29;20039;-73
2021/10/09 04:29:51;;;;;;;77.45;70.38;;;6.00;99.90;;;;;;4952875;29;20103;-72
2021/10/09 04:32:17;;;;;;;80.78;73.63;;;6.10;99.90;;;;;;4942298;29;20036;-72
2021/10/09 04:34:43;;;;;;;74.82;68.15;;;6.30;99.90;;;;;;4935321;29;20058;-72
2021/10/09 04:37:11;;;;;;;69.90;64.25;;;6.20;99.90;;;;;;4935536;29;20042;-72
2021/10/09 04:39:38;;;;;;;70.22;64.53;;;6.10;99.90;;;;;;4951019;29;20046;-73
2021/10/09 04:42:06;;;;;;;71.68;64.93;;;6.10;99.90;;;;;;4933355;29;20047;-72
2021/10/09 04:44:33;;;;;;;68.65;62.83;;;6.10;99.90;;;;;;4932956;29;20505;-72
2021/10/09 04:46:59;;;;;;;68.15;62.40;;;6.00;99.90;;;;;;4934962;29;20031;-72
2021/10/09 04:49:26;;;;;;;68.50;62.70;;;5.90;99.90;;;;;;4934457;29;20084;-72
2021/10/09 04:51:53;;;;;;;67.68;62.05;;;5.90;99.90;;;;;;4918109;29;20035;-72
2021/10/09 04:54:20;;;;;;;68.93;62.33;;;5.80;99.90;;;;;;4932335;29;20524;-72
2021/10/09 04:56:47;;;;;;;72.20;65.68;;;5.70;99.90;;;;;;4931843;29;20205;-72
2021/10/09 04:59:15;;;;;;;79.90;73.13;;;5.80;99.90;;;;;;4941999;29;20031;-72
2021/10/09 05:01:42;;;;;;;82.18;74.32;;;5.70;99.90;;;;;;4945883;29;20038;-73
2021/10/09 05:04:08;;;;;;;80.72;73.72;;;5.80;99.90;;;;;;4934389;29;20394;-72
2021/10/09 05:06:35;;;;;;;87.00;79.35;;;5.80;99.90;;;;;;4932167;29;20047;-72
2021/10/09 05:09:01;;;;;;;81.53;74.10;;;5.80;99.90;;;;;;4928416;29;20365;-72
2021/10/09 05:11:29;;;;;;;81.43;74.32;;;5.80;99.90;;;;;;4935151;29;20046;-72
2021/10/09 05:13:56;;;;;;;84.50;76.20;;;5.70;99.90;;;;;;4952637;29;20032;-72
2021/10/09 05:16:23;;;;;;;82.40;74.95;;;5.70;99.90;;;;;;4935560;29;20047;-72
2021/10/09 05:18:50;;;;;;;86.18;78.22;;;5.60;99.90;;;;;;4918578;29;20492;-72
2021/10/09 05:21:17;;;;;;;88.07;79.88;;;5.70;99.90;;;;;;4916684;29;20512;-71
2021/10/09 05:23:43;;;;;;;84.18;76.78;;;5.60;99.90;;;;;;4935011;29;20124;-72
2021/10/09 05:26:10;;;;;;;85.90;77.95;;;5.60;99.90;;;;;;4934683;29;20398;-72
2021/10/09 05:31:09;;;;;;;89.18;81.13;;;5.50;99.90;;;;;;4917554;29;20055;-72
2021/10/09 05:33:39;;;;;;;87.50;79.45;;;5.50;99.90;;;;;;4928286;29;20054;-72
2021/10/09 05:36:07;;;;;;;87.25;79.90;;;5.50;99.90;;;;;;4932718;29;20059;-72
2021/10/09 05:38:34;;;;;;;89.20;80.78;;;5.50;99.90;;;;;;4905498;29;20031;-72
2021/10/09 05:41:02;;;;;;;86.60;79.18;;;5.50;99.90;;;;;;4939144;29;20055;-72
2021/10/09 05:43:33;;;;;;;;;;;5.60;99.90;;;;;;4931941;29;20040;-72
2021/10/09 05:45:59;;;;;;;83.40;75.68;;;5.50;99.90;;;;;;4920976;29;19910;-72
2021/10/09 05:48:27;;;;;;;88.70;80.50;;;5.50;99.90;;;;;;4920790;29;20035;-72
2021/10/09 05:51:02;;;;;;;93.32;84.32;;;5.50;99.90;;;;;;4949918;29;20050;-72
2021/10/09 05:53:45;;;;;;;91.70;83.70;;;5.50;99.90;;;;;;4938162;29;20050;-72
2021/10/09 06:41:59;;;;;;;40.28;36.38;;;8.40;99.90;;;;;;4937654;29;20418;-73
2021/10/09 06:44:07;;;;;;;34.03;30.70;;;8.50;99.90;;;;;;4937467;29;20039;-72
2021/10/09 07:00:29;;;;;;;24.75;22.63;;;8.10;99.90;;;;;;4934080;29;20044;-74
2021/10/09 07:02:55;;;;;;;25.38;22.98;;;8.10;99.90;;;;;;4941135;29;20050;-73
2021/10/09 07:05:22;;;;;;;25.98;22.67;;;8.10;99.90;;;;;;4947894;29;20048;-72
2021/10/09 07:08:08;;;;;;;23.53;21.40;;;8.30;99.90;;;;;;4937126;29;20047;-73
2021/10/09 07:11:01;;;;;;;22.98;20.92;;;8.30;99.90;;;;;;4919011;29;20051;-73
2021/10/09 07:13:27;;;;;;;25.60;23.48;;;8.30;99.90;;;;;;4942124;29;20145;-73
2021/10/09 07:15:54;;;;;;;23.70;21.45;;;8.60;99.90;;;;;;4936661;29;20055;-73
2021/10/09 07:18:20;;;;;;;22.27;20.25;;;8.80;99.90;;;;;;4941638;29;20050;-73
2021/10/09 07:20:49;;;;;;;19.63;17.92;;;9.00;99.90;;;;;;4935959;29;20046;-73
2021/10/09 07:23:16;;;;;;;19.13;17.33;;;9.40;99.90;;;;;;4936841;29;20046;-73
2021/10/09 07:25:43;;;;;;;20.95;18.92;;;10.20;99.90;;;;;;4937465;29;20046;-73
2021/10/09 07:28:09;;;;;;;21.27;17.48;;;11.00;99.90;;;;;;4954199;29;20031;-73
2021/10/09 07:30:38;;;;;;;20.40;14.85;;;11.50;99.90;;;;;;4908572;29;20039;-73
2021/10/09 07:33:05;;;;;;;18.27;15.95;;;12.00;97.60;;;;;;4936286;29;20034;-73
2021/10/09 07:35:31;;;;;;;16.25;14.43;;;12.60;95.30;;;;;;4949206;29;20490;-74
2021/10/09 07:37:57;;;;;;;15.43;13.73;;;12.70;93.60;;;;;;4948216;29;20036;-73
2021/10/09 07:40:26;;;;;;;13.60;12.10;;;13.10;92.60;;;;;;4919288;29;20047;-74
2021/10/09 07:42:56;;;;;;;18.50;14.50;;;13.20;91.50;;;;;;4919544;29;20035;-74
2021/10/09 07:45:22;;;;;;;12.40;11.18;;;13.40;91.00;;;;;;4933601;29;20043;-74
2021/10/09 07:47:48;;;;;;;12.68;11.20;;;13.90;88.60;;;;;;4903377;29;20386;-73
2021/10/09 07:50:17;;;;;;;13.50;11.52;;;13.80;87.90;;;;;;4933387;29;20047;-76
2021/10/09 07:52:43;;;;;;;14.10;11.63;;;13.80;88.10;;;;;;4935973;29;20035;-76
2021/10/09 07:55:10;;;;;;;11.73;10.65;;;14.00;86.50;;;;;;4936191;29;20055;-76
2021/10/09 07:57:36;;;;;;;11.63;10.52;;;14.10;85.10;;;;;;4936007;29;20048;-77
2021/10/09 08:00:07;;;;;;;11.70;10.65;;;14.20;84.10;;;;;;4918737;29;20047;-76
2021/10/09 08:02:46;;;;;;;19.00;11.50;;;13.90;84.70;;;;;;4938135;29;20051;-77
2021/10/09 08:05:15;;;;;;;11.60;10.57;;;14.00;85.20;;;;;;4939666;29;20039;-76
2021/10/09 08:07:42;;;;;;;11.95;10.75;;;14.30;84.90;;;;;;4928607;29;20050;-76
2021/10/09 08:10:11;;;;;;;11.40;10.27;;;15.30;80.90;;;;;;4945193;29;20055;-75
2021/10/09 08:12:38;;;;;;;14.57;10.63;;;16.00;77.80;;;;;;4937542;29;20047;-77
2021/10/09 08:15:05;;;;;;;12.85;10.10;;;16.10;74.30;;;;;;4953537;29;20094;-77
2021/10/09 08:17:32;;;;;;;10.55;9.55;;;15.60;75.50;;;;;;4956473;29;20050;-77
2021/10/09 08:20:00;;;;;;;18.08;10.15;;;15.00;77.10;;;;;;4953738;29;20045;-78
2021/10/09 08:22:28;;;;;;;10.23;9.10;;;14.60;77.40;;;;;;4946025;29;20040;-77
2021/10/09 08:35:23;;;;;;;10.35;8.90;;;14.40;77.20;;;;;;4936067;29;20052;-77
2021/10/09 08:38:54;;;;;;;14.55;10.13;;;15.40;71.70;;;;;;4944856;29;20054;-86
2021/10/09 08:41:21;;;;;;;13.40;10.55;;;15.50;70.50;;;;;;4945164;29;20388;-80
2021/10/09 08:43:51;;;;;;;14.00;10.32;;;15.60;69.70;;;;;;4949297;29;20031;-85
2021/10/09 08:46:18;;;;;;;11.50;9.73;;;15.60;69.60;;;;;;4935546;29;20040;-76
2021/10/09 08:48:52;;;;;;;12.07;10.07;;;15.50;70.40;;;;;;4928778;29;20070;-78
2021/10/09 08:51:25;;;;;;;10.55;9.55;;;15.60;70.10;;;;;;4943651;29;20040;-79
2021/10/09 08:53:52;;;;;;;10.60;9.55;;;15.80;70.60;;;;;;4934425;29;20035;-79
2021/10/09 08:56:40;;;;;;;10.35;9.10;;;17.00;67.50;;;;;;4934405;29;20040;-77
2021/10/09 08:59:24;;;;;;;11.40;9.90;;;17.60;66.20;;;;;;4934829;29;20047;-78
2021/10/09 09:02:11;;;;;;;16.05;9.70;;;16.20;67.60;;;;;;4939475;29;20058;-78
2021/10/09 09:07:25;;;;;;;10.63;9.68;;;14.60;72.20;;;;;;4936136;29;20047;-76
2021/10/09 09:26:53;;;;;;;13.23;10.35;;;16.30;66.10;;;;;;4940741;29;20054;-79
2021/10/09 09:37:27;;;;;;;13.15;10.43;;;14.60;71.30;;;;;;4955198;29;20043;-79
2021/10/09 09:39:54;;;;;;;10.70;9.80;;;14.30;71.90;;;;;;4943230;29;20378;-77
2021/10/09 09:42:24;;;;;;;10.88;8.85;;;14.30;72.80;;;;;;4959602;29;20043;-79
2021/10/09 09:44:54;;;;;;;11.63;10.27;;;15.00;69.90;;;;;;4951570;29;20054;-85
2021/10/09 09:47:34;;;;;;;9.23;8.43;;;14.80;69.10;;;;;;4936467;29;20048;-84
2021/10/09 09:50:05;;;;;;;13.95;12.35;;;15.00;69.50;;;;;;4942073;29;20034;-80
2021/10/09 09:52:44;;;;;;;14.05;10.38;;;15.10;69.50;;;;;;4955152;29;20036;-83
2021/10/09 09:55:13;;;;;;;9.45;8.65;;;14.60;69.10;;;;;;4955432;29;20043;-78
2021/10/09 09:57:40;;;;;;;11.15;10.05;;;14.60;69.70;;;;;;4951833;29;20031;-83
2021/10/09 10:00:08;;;;;;;11.07;9.23;;;14.60;70.20;;;;;;4938398;29;20027;-76
2021/10/09 10:02:50;;;;;;;12.07;10.00;;;14.70;69.50;;;;;;4939895;29;20063;-76
2021/10/09 10:05:19;;;;;;;11.25;10.15;;;14.50;70.20;;;;;;4938502;29;20385;-78
2021/10/09 10:07:47;;;;;;;11.93;9.38;;;14.60;70.40;;;;;;4946905;29;20031;-82
2021/10/09 10:10:17;;;;;;;9.20;8.48;;;14.70;69.80;;;;;;4952561;29;20040;-79
2021/10/09 10:12:46;;;;;;;9.10;8.30;;;14.60;69.30;;;;;;4949129;29;20040;-78
2021/10/09 10:15:14;;;;;;;14.82;10.05;;;14.50;70.00;;;;;;4948205;29;20046;-78
2021/10/09 10:17:47;;;;;;;9.95;9.15;;;14.70;69.60;;;;;;4940176;29;20481;-76
2021/10/09 10:20:18;;;;;;;10.45;9.52;;;14.50;69.40;;;;;;4938524;29;20040;-78
2021/10/09 10:22:44;;;;;;;10.55;8.85;;;14.70;68.40;;;;;;4950617;28;20039;-77
2021/10/09 10:25:31;;;;;;;13.10;8.80;;;14.60;68.20;;;;;;4940652;29;20047;-79
2021/10/09 10:28:17;;;;;;;9.77;8.13;;;14.50;68.70;;;;;;4935332;29;20058;-77
2021/10/09 10:30:45;;;;;;;8.90;7.75;;;14.60;68.90;;;;;;4937289;29;20039;-78
2021/10/09 10:33:12;;;;;;;8.07;7.13;;;14.80;67.70;;;;;;4937547;29;20036;-81
2021/10/09 10:35:38;;;;;;;11.60;7.57;;;15.10;67.30;;;;;;4937020;29;20043;-80
2021/10/09 10:38:14;;;;;;;10.23;8.35;;;15.20;66.00;;;;;;4952534;29;20031;-76
2021/10/09 10:40:48;;;;;;;10.52;8.40;;;15.00;66.10;;;;;;4950861;29;20019;-77
2021/10/09 10:43:52;;;;;;;8.50;7.80;;;15.00;66.80;;;;;;4944595;29;20050;-81
2021/10/09 10:49:01;;;;;;;13.38;8.57;;;15.20;65.80;;;;;;4936779;29;20032;-83
2021/10/09 10:56:58;;;;;;;9.30;8.25;;;15.40;64.70;;;;;;4936447;29;20043;-77
2021/10/09 10:59:32;;;;;;;10.40;7.22;;;15.50;64.70;;;;;;4934659;29;20039;-76
2021/10/09 11:02:12;;;;;;;8.85;6.50;;;15.50;64.50;;;;;;4943532;29;20047;-77
2021/10/09 11:04:55;;;;;;;10.27;7.03;;;15.40;64.90;;;;;;4952596;29;20039;-79
2021/10/09 11:07:28;;;;;;;9.80;6.25;;;15.70;63.40;;;;;;4937533;29;20291;-80
2021/10/09 11:10:05;;;;;;;11.13;7.65;;;15.60;61.40;;;;;;4941918;29;20232;-83
2021/10/09 11:12:34;;;;;;;7.78;7.03;;;15.60;62.80;;;;;;4954683;29;20039;-78
2021/10/09 11:15:10;;;;;;;8.30;7.47;;;15.70;62.70;;;;;;4925032;29;20055;-78
2021/10/09 11:17:41;;;;;;;8.95;7.82;;;15.80;62.60;;;;;;4935295;29;20056;-77
2021/10/09 11:20:23;;;;;;;7.63;6.82;;;15.80;63.20;;;;;;4931133;29;20366;-82
2021/10/09 11:22:51;;;;;;;7.00;6.13;;;15.90;61.30;;;;;;4941845;29;20054;-86
2021/10/09 11:25:26;;;;;;;9.00;6.93;;;15.90;61.80;;;;;;4951491;29;20034;-82
2021/10/09 11:27:54;;;;;;;9.63;7.05;;;16.00;62.20;;;;;;4939647;29;20035;-77
2021/10/09 11:30:20;;;;;;;10.77;7.65;;;16.00;63.00;;;;;;4954419;29;20027;-77
2021/10/09 11:32:47;;;;;;;16.48;7.32;;;15.90;62.40;;;;;;4953642;29;20392;-78
2021/10/09 11:35:15;;;;;;;7.53;6.68;;;15.90;62.60;;;;;;4943383;28;20036;-77
2021/10/09 11:37:50;;;;;;;8.43;7.20;;;16.00;62.40;;;;;;4936116;29;20038;-77
2021/10/09 11:40:42;;;;;;;7.10;6.38;;;16.10;61.40;;;;;;4939813;29;20034;-78
2021/10/09 11:43:29;;;;;;;6.75;5.45;;;16.00;61.70;;;;;;4931074;29;20047;-79
2021/10/09 11:54:08;;;;;;;12.43;6.18;;;16.50;60.70;;;;;;4944708;29;20388;-85
2021/10/09 11:56:47;;;;;;;8.70;6.55;;;16.50;59.40;;;;;;4941750;29;20050;-79
2021/10/09 11:59:14;;;;;;;7.07;5.70;;;16.60;59.20;;;;;;4936039;29;20035;-76
2021/10/09 12:01:43;;;;;;;13.73;6.45;;;16.50;59.30;;;;;;4935439;29;20477;-78
2021/10/09 12:04:23;;;;;;;13.93;7.07;;;16.60;59.30;;;;;;4936072;29;20039;-78
2021/10/09 12:07:05;;;;;;;9.43;6.47;;;16.80;58.90;;;;;;4943623;29;20047;-79
2021/10/09 12:09:47;;;;;;;7.22;6.47;;;16.70;57.90;;;;;;4942385;29;20072;-77
2021/10/09 12:12:23;;;;;;;6.22;5.63;;;16.90;58.20;;;;;;4939305;29;20047;-78
2021/10/09 12:14:51;;;;;;;7.65;6.95;;;17.00;58.50;;;;;;4954816;29;20035;-77
2021/10/09 12:17:20;;;;;;;5.93;5.43;;;17.00;58.00;;;;;;4946780;29;20051;-78
2021/10/09 12:20:07;;;;;;;6.95;5.60;;;17.00;58.10;;;;;;4941707;29;20035;-81
2021/10/09 12:22:45;;;;;;;8.25;6.45;;;17.00;58.60;;;;;;4945659;29;20393;-81
2021/10/09 12:25:24;;;;;;;6.28;5.68;;;17.20;57.90;;;;;;4950237;29;20039;-77
2021/10/09 12:27:59;;;;;;;10.05;6.43;;;16.90;58.00;;;;;;4939949;29;20046;-81
2021/10/09 12:30:46;;;;;;;9.68;6.32;;;16.90;57.80;;;;;;4938411;29;20327;-79
2021/10/09 12:33:38;;;;;;;7.13;6.00;;;16.60;58.20;;;;;;4935399;29;20436;-78
2021/10/09 12:39:22;;;;;;;5.95;5.25;;;17.30;58.70;;;;;;4920751;29;20050;-82
2021/10/09 12:41:54;;;;;;;5.70;5.13;;;17.40;57.00;;;;;;4935467;29;20137;-81
2021/10/09 12:44:21;;;;;;;16.75;6.80;;;17.40;57.30;;;;;;4939599;29;20042;-84
2021/10/09 12:46:48;;;;;;;9.02;6.20;;;17.20;57.90;;;;;;4935125;29;20038;-79
2021/10/09 12:49:16;;;;;;;6.18;5.60;;;17.10;58.60;;;;;;4935604;29;20031;-76
2021/10/09 12:51:42;;;;;;;24.42;6.05;;;17.00;58.10;;;;;;4951267;29;20051;-78
2021/10/09 12:54:09;;;;;;;7.43;5.78;;;17.10;58.50;;;;;;4946117;29;20039;-87
2021/10/09 12:56:36;;;;;;;10.15;5.60;;;17.20;58.30;;;;;;4934932;29;20054;-77
2021/10/09 12:59:03;;;;;;;12.77;6.53;;;17.50;58.30;;;;;;4935301;29;20051;-80
2021/10/09 13:01:29;;;;;;;8.70;7.07;;;17.60;57.80;;;;;;4936681;29;20035;-86
2021/10/09 13:03:56;;;;;;;6.18;5.65;;;17.50;57.50;;;;;;4938391;29;20062;-79
2021/10/09 13:06:22;;;;;;;6.65;6.05;;;17.40;58.20;;;;;;4939951;29;20054;-81
2021/10/09 13:08:49;;;;;;;7.05;6.15;;;17.30;57.60;;;;;;4945874;29;20043;-77
2021/10/09 13:11:20;;;;;;;5.97;5.47;;;17.30;58.70;;;;;;4972671;29;20028;-77
2021/10/09 13:13:46;;;;;;;7.15;5.72;;;17.50;58.90;;;;;;4951779;29;20039;-76
2021/10/09 13:16:13;;;;;;;10.27;5.80;;;17.50;58.10;;;;;;4946108;29;20043;-77
2021/10/09 13:18:39;;;;;;;7.25;6.25;;;17.40;58.80;;;;;;4946605;29;20035;-77
2021/10/09 13:21:06;;;;;;;8.27;6.22;;;17.40;58.80;;;;;;4937427;29;20047;-78
2021/10/09 13:23:32;;;;;;;6.90;5.93;;;17.40;58.60;;;;;;4937522;29;20036;-79
2021/10/09 13:25:59;;;;;;;7.20;6.53;;;17.30;58.60;;;;;;4952862;29;20043;-80
2021/10/09 13:28:27;;;;;;;6.63;6.07;;;17.20;58.40;;;;;;4921165;29;20032;-79
2021/10/09 13:30:54;;;;;;;11.88;6.10;;;17.20;58.50;;;;;;4948145;29;20035;-78
2021/10/09 13:33:20;;;;;;;11.10;5.72;;;17.30;59.00;;;;;;4956599;29;20035;-86
2021/10/09 13:35:47;;;;;;;10.65;6.53;;;17.20;55.90;;;;;;4953104;29;20035;-79
2021/10/09 13:38:14;;;;;;;11.65;5.43;;;17.40;58.20;;;;;;4948906;29;20027;-79
2021/10/09 13:40:41;;;;;;;6.68;5.82;;;17.40;58.00;;;;;;4935387;29;20464;-82
2021/10/09 13:43:12;;;;;;;5.85;5.35;;;17.40;57.80;;;;;;4937857;29;20040;-79
2021/10/09 13:45:43;;;;;;;6.05;5.45;;;17.40;57.10;;;;;;4946179;29;20032;-78
2021/10/09 13:48:09;;;;;;;17.05;6.63;;;17.50;58.50;;;;;;4948695;29;20036;-79
2021/10/09 13:50:40;;;;;;;6.05;5.53;;;17.30;58.30;;;;;;4945913;29;20035;-81
2021/10/09 13:53:09;;;;;;;19.27;6.00;;;17.30;58.90;;;;;;4952805;29;20035;-83
2021/10/09 13:55:36;;;;;;;8.73;5.93;;;17.40;58.40;;;;;;4941488;29;20035;-78
2021/10/09 13:58:03;;;;;;;8.93;5.43;;;17.30;58.10;;;;;;4935493;29;20050;-82
2021/10/09 14:00:31;;;;;;;5.28;4.88;;;17.40;58.00;;;;;;4943881;29;20042;-82
2021/10/09 14:02:58;;;;;;;5.95;5.45;;;17.30;58.00;;;;;;4956206;29;20483;-82
2021/10/09 14:05:25;;;;;;;6.28;4.47;;;17.40;58.60;;;;;;4947086;29;20044;-77
2021/10/09 14:07:51;;;;;;;7.00;6.40;;;17.50;58.10;;;;;;4937409;29;20042;-84
2021/10/09 14:10:19;;;;;;;6.63;5.88;;;17.40;58.00;;;;;;4955905;29;20396;-78
2021/10/09 14:12:45;;;;;;;7.13;6.40;;;17.30;57.90;;;;;;4955860;29;20473;-77
2021/10/09 14:15:12;;;;;;;9.43;6.63;;;17.40;58.20;;;;;;4935886;29;20362;-77
2021/10/09 14:17:39;;;;;;;7.13;6.40;;;17.50;58.20;;;;;;4942291;29;20389;-78
2021/10/09 14:20:07;;;;;;;8.27;5.55;;;17.50;57.50;;;;;;4944204;29;20043;-76
2021/10/09 14:22:34;;;;;;;7.63;6.07;;;17.40;57.90;;;;;;4943789;29;20036;-82
2021/10/09 14:25:00;;;;;;;7.28;5.82;;;17.40;57.60;;;;;;4933969;29;20130;-77
2021/10/09 14:27:30;;;;;;;8.05;6.22;;;17.40;58.10;;;;;;4936939;29;20039;-77
2021/10/09 14:29:57;;;;;;;5.97;5.38;;;17.50;57.70;;;;;;4937794;29;20043;-79
2021/10/09 14:32:24;;;;;;;6.22;5.63;;;17.40;57.30;;;;;;4955094;29;20046;-77
2021/10/09 14:34:50;;;;;;;5.90;5.07;;;17.30;57.70;;;;;;4955845;29;20031;-84
2021/10/09 14:37:16;;;;;;;6.88;5.25;;;17.10;57.10;;;;;;4938804;29;20054;-81
2021/10/09 14:39:44;;;;;;;10.52;7.85;;;17.10;58.20;;;;;;4947865;29;20034;-77
2021/10/09 14:42:11;;;;;;;6.43;5.82;;;17.10;58.20;;;;;;4921156;29;20393;-80
2021/10/09 14:44:38;;;;;;;9.02;7.45;;;17.30;58.10;;;;;;4951778;29;20042;-79
2021/10/09 14:50:32;;;;;;;8.23;6.78;;;17.20;57.60;;;;;;4933228;29;20050;-78
2021/10/09 15:19:54;;;;;;;19.98;6.55;;;16.70;59.20;;;;;;4953660;29;20035;-76
2021/10/09 15:22:20;;;;;;;12.40;10.05;;;16.70;58.80;;;;;;4949181;29;20042;-79
2021/10/09 15:24:46;;;;;;;5.63;5.05;;;16.60;58.80;;;;;;4945304;29;20031;-75
2021/10/09 15:27:12;;;;;;;13.90;5.93;;;16.70;59.40;;;;;;4936515;29;20040;-77
2021/10/09 15:29:39;;;;;;;7.78;5.90;;;16.60;59.30;;;;;;4952979;29;20441;-75
2021/10/09 15:32:05;;;;;;;12.60;7.47;;;16.60;59.50;;;;;;4946932;29;20031;-79